UKV5035 RJFU-RJFM
Flight info
| Callsign | UKV5035 |
|---|---|
| Flight time | 0h 28m |
| Altitude | 21000 |
| Route | KAZSA RYUGU CHAGA OYODO SINWA |
| Aircraft | A321/M-SDE3FGHIRWY/LB1 |
Departure
| Time | 2026-05-07 17:16 |
|---|---|
| Airport | Nagasaki Airport (RJFU) |
Arrival
| Time | 2026-05-07 17:45 |
|---|---|
| Airport | Miyazaki Airport (RJFM) |
| Time | Latitude | Longitude | Altitude | Speed | Heading |
|---|---|---|---|---|---|
| 2026-05-07 17:06 | 32.91296 | 129.92268 | 19 ft | 0 kts | 48° |
| 2026-05-07 17:12 | 32.91281 | 129.92248 | 22 ft | 4 kts | 50° |
| 2026-05-07 17:12 | 32.91264 | 129.92224 | 20 ft | 4 kts | 52° |
| 2026-05-07 17:12 | 32.91247 | 129.92198 | 21 ft | 4 kts | 55° |
| 2026-05-07 17:12 | 32.91232 | 129.92171 | 21 ft | 4 kts | 62° |
| 2026-05-07 17:13 | 32.91222 | 129.92143 | 20 ft | 4 kts | 87° |
| 2026-05-07 17:13 | 32.91225 | 129.92123 | 19 ft | 0 kts | 138° |
| 2026-05-07 17:14 | 32.91184 | 129.92167 | 17 ft | 16 kts | 138° |
| 2026-05-07 17:14 | 32.91093 | 129.92263 | 20 ft | 18 kts | 139° |
| 2026-05-07 17:15 | 32.90995 | 129.92365 | 18 ft | 19 kts | 139° |
| 2026-05-07 17:15 | 32.90894 | 129.92470 | 21 ft | 20 kts | 139° |
| 2026-05-07 17:15 | 32.90792 | 129.92529 | 19 ft | 15 kts | 198° |
| 2026-05-07 17:15 | 32.90727 | 129.92436 | 20 ft | 15 kts | 255° |
| 2026-05-07 17:16 | 32.90774 | 129.92331 | 20 ft | 18 kts | 317° |
| 2026-05-07 17:16 | 32.91037 | 129.92048 | 16 ft | 90 kts | 318° |
| 2026-05-07 17:16 | 32.91662 | 129.91375 | 19 ft | 152 kts | 316° |
| 2026-05-07 17:16 | 32.92470 | 129.90492 | 628 ft | 155 kts | 315° |
| 2026-05-07 17:17 | 32.93278 | 129.89629 | 1345 ft | 156 kts | 314° |
| 2026-05-07 17:17 | 32.94094 | 129.88768 | 1985 ft | 160 kts | 314° |
| 2026-05-07 17:17 | 32.94797 | 129.87686 | 2274 ft | 176 kts | 286° |
| 2026-05-07 17:17 | 32.94766 | 129.86195 | 2421 ft | 194 kts | 244° |
| 2026-05-07 17:18 | 32.93749 | 129.85059 | 2591 ft | 218 kts | 201° |
| 2026-05-07 17:18 | 32.92178 | 129.84677 | 2773 ft | 243 kts | 188° |
| 2026-05-07 17:18 | 32.90444 | 129.84575 | 3169 ft | 253 kts | 184° |
| 2026-05-07 17:18 | 32.88697 | 129.84563 | 3699 ft | 256 kts | 183° |
| 2026-05-07 17:19 | 32.86913 | 129.84792 | 4218 ft | 263 kts | 168° |
| 2026-05-07 17:19 | 32.85218 | 129.85681 | 4721 ft | 272 kts | 152° |
| 2026-05-07 17:19 | 32.83770 | 129.87173 | 5196 ft | 281 kts | 134° |
| 2026-05-07 17:19 | 32.82531 | 129.88992 | 5703 ft | 284 kts | 133° |
| 2026-05-07 17:20 | 32.81278 | 129.90820 | 6183 ft | 287 kts | 133° |
| 2026-05-07 17:20 | 32.80006 | 129.92666 | 6656 ft | 290 kts | 134° |
| 2026-05-07 17:20 | 32.78719 | 129.94529 | 7101 ft | 293 kts | 134° |
| 2026-05-07 17:20 | 32.77417 | 129.96414 | 7549 ft | 296 kts | 133° |
| 2026-05-07 17:21 | 32.76108 | 129.98311 | 8005 ft | 298 kts | 133° |
| 2026-05-07 17:21 | 32.74783 | 130.00231 | 8451 ft | 301 kts | 134° |
| 2026-05-07 17:21 | 32.73460 | 130.02147 | 8882 ft | 305 kts | 134° |
| 2026-05-07 17:21 | 32.72109 | 130.04104 | 9308 ft | 307 kts | 134° |
| 2026-05-07 17:22 | 32.70749 | 130.06074 | 9747 ft | 309 kts | 134° |
| 2026-05-07 17:22 | 32.69374 | 130.08063 | 10069 ft | 315 kts | 134° |
| 2026-05-07 17:22 | 32.67955 | 130.10112 | 10186 ft | 326 kts | 134° |
| 2026-05-07 17:22 | 32.66489 | 130.12228 | 10310 ft | 335 kts | 133° |
| 2026-05-07 17:23 | 32.65011 | 130.14364 | 10431 ft | 343 kts | 133° |
| 2026-05-07 17:23 | 32.63484 | 130.16574 | 10593 ft | 348 kts | 133° |
| 2026-05-07 17:23 | 32.61952 | 130.18795 | 10987 ft | 342 kts | 133° |
| 2026-05-07 17:23 | 32.60498 | 130.20912 | 11911 ft | 319 kts | 133° |
| 2026-05-07 17:24 | 32.59257 | 130.23006 | 12875 ft | 303 kts | 127° |
| 2026-05-07 17:24 | 32.58251 | 130.25186 | 13487 ft | 301 kts | 120° |
| 2026-05-07 17:24 | 32.57467 | 130.27498 | 13885 ft | 304 kts | 113° |
| 2026-05-07 17:24 | 32.56782 | 130.29876 | 14222 ft | 306 kts | 114° |
| 2026-05-07 17:25 | 32.56086 | 130.32271 | 14653 ft | 309 kts | 114° |
| 2026-05-07 17:25 | 32.55381 | 130.34686 | 15251 ft | 311 kts | 115° |
| 2026-05-07 17:25 | 32.54674 | 130.37095 | 15825 ft | 314 kts | 115° |
| 2026-05-07 17:25 | 32.53951 | 130.39555 | 16403 ft | 318 kts | 115° |
| 2026-05-07 17:26 | 32.53220 | 130.42040 | 16973 ft | 321 kts | 116° |
| 2026-05-07 17:26 | 32.52472 | 130.44579 | 17288 ft | 335 kts | 115° |
| 2026-05-07 17:26 | 32.51692 | 130.47218 | 17670 ft | 345 kts | 116° |
| 2026-05-07 17:26 | 32.50887 | 130.49946 | 18050 ft | 355 kts | 116° |
| 2026-05-07 17:27 | 32.50062 | 130.52747 | 18415 ft | 364 kts | 116° |
| 2026-05-07 17:27 | 32.49216 | 130.55620 | 18760 ft | 374 kts | 115° |
| 2026-05-07 17:27 | 32.48357 | 130.58531 | 19102 ft | 382 kts | 115° |
| 2026-05-07 17:27 | 32.47470 | 130.61535 | 19451 ft | 391 kts | 115° |
| 2026-05-07 17:28 | 32.46563 | 130.64602 | 19805 ft | 399 kts | 115° |
| 2026-05-07 17:28 | 32.45634 | 130.67744 | 20165 ft | 408 kts | 115° |
| 2026-05-07 17:28 | 32.44688 | 130.70945 | 20527 ft | 416 kts | 114° |
| 2026-05-07 17:28 | 32.43688 | 130.74191 | 20865 ft | 422 kts | 120° |
| 2026-05-07 17:29 | 32.42301 | 130.77283 | 20955 ft | 432 kts | 125° |
| 2026-05-07 17:29 | 32.40791 | 130.80443 | 20974 ft | 449 kts | 125° |
| 2026-05-07 17:29 | 32.39216 | 130.83713 | 20982 ft | 466 kts | 125° |
| 2026-05-07 17:29 | 32.37602 | 130.87058 | 20977 ft | 480 kts | 125° |
| 2026-05-07 17:30 | 32.35926 | 130.90544 | 20971 ft | 493 kts | 124° |
| 2026-05-07 17:30 | 32.34212 | 130.94118 | 20980 ft | 503 kts | 124° |
| 2026-05-07 17:30 | 32.32476 | 130.97744 | 20971 ft | 507 kts | 124° |
| 2026-05-07 17:30 | 32.30762 | 131.01329 | 20976 ft | 508 kts | 124° |
| 2026-05-07 17:31 | 32.29021 | 131.04970 | 20975 ft | 508 kts | 124° |
| 2026-05-07 17:31 | 32.27298 | 131.08574 | 20439 ft | 494 kts | 124° |
| 2026-05-07 17:31 | 32.25642 | 131.12041 | 18905 ft | 479 kts | 125° |
| 2026-05-07 17:31 | 32.24009 | 131.15443 | 17260 ft | 466 kts | 124° |
| 2026-05-07 17:32 | 32.22705 | 131.18143 | 16063 ft | 454 kts | 124° |
| 2026-05-07 17:32 | 32.21186 | 131.21281 | 15358 ft | 426 kts | 124° |
| 2026-05-07 17:32 | 32.19739 | 131.24270 | 14624 ft | 415 kts | 124° |
| 2026-05-07 17:32 | 32.18297 | 131.27229 | 13915 ft | 415 kts | 124° |
| 2026-05-07 17:33 | 32.16864 | 131.30176 | 13162 ft | 411 kts | 123° |
| 2026-05-07 17:33 | 32.15445 | 131.33098 | 12543 ft | 409 kts | 123° |
| 2026-05-07 17:33 | 32.14034 | 131.36003 | 11886 ft | 411 kts | 122° |
| 2026-05-07 17:33 | 32.12945 | 131.39160 | 11198 ft | 422 kts | 105° |
| 2026-05-07 17:34 | 32.12720 | 131.42611 | 10515 ft | 424 kts | 86° |
| 2026-05-07 17:34 | 32.12927 | 131.44835 | 10104 ft | 421 kts | 84° |
| 2026-05-07 17:34 | 32.13218 | 131.48250 | 9408 ft | 416 kts | 84° |
| 2026-05-07 17:34 | 32.13586 | 131.51626 | 8697 ft | 412 kts | 83° |
| 2026-05-07 17:35 | 32.13952 | 131.54913 | 8012 ft | 407 kts | 83° |
| 2026-05-07 17:35 | 32.14321 | 131.58213 | 7323 ft | 402 kts | 83° |
| 2026-05-07 17:35 | 32.14675 | 131.61470 | 6658 ft | 397 kts | 85° |
| 2026-05-07 17:35 | 32.14557 | 131.64633 | 6439 ft | 370 kts | 102° |
| 2026-05-07 17:36 | 32.13828 | 131.67347 | 6312 ft | 327 kts | 118° |
| 2026-05-07 17:36 | 32.12700 | 131.69499 | 6182 ft | 293 kts | 133° |
| 2026-05-07 17:36 | 32.11290 | 131.71163 | 6049 ft | 285 kts | 146° |
| 2026-05-07 17:36 | 32.09654 | 131.72386 | 5935 ft | 279 kts | 156° |
| 2026-05-07 17:37 | 32.07931 | 131.73439 | 5816 ft | 278 kts | 158° |
| 2026-05-07 17:37 | 32.06112 | 131.74069 | 5676 ft | 270 kts | 180° |
| 2026-05-07 17:37 | 32.04277 | 131.73853 | 5559 ft | 263 kts | 198° |
| 2026-05-07 17:37 | 32.02488 | 131.73307 | 5185 ft | 266 kts | 198° |
| 2026-05-07 17:38 | 32.00693 | 131.72749 | 4745 ft | 268 kts | 199° |
| 2026-05-07 17:38 | 31.98890 | 131.72188 | 4307 ft | 261 kts | 199° |
| 2026-05-07 17:38 | 31.97241 | 131.71684 | 4234 ft | 234 kts | 199° |
| 2026-05-07 17:38 | 31.95716 | 131.71221 | 4217 ft | 219 kts | 199° |
| 2026-05-07 17:39 | 31.94280 | 131.70783 | 4131 ft | 207 kts | 200° |
| 2026-05-07 17:39 | 31.92918 | 131.70363 | 4048 ft | 205 kts | 200° |
| 2026-05-07 17:39 | 31.91601 | 131.69931 | 3917 ft | 187 kts | 206° |
| 2026-05-07 17:39 | 31.90548 | 131.69210 | 3745 ft | 168 kts | 225° |
| 2026-05-07 17:40 | 31.89793 | 131.68202 | 3594 ft | 162 kts | 241° |
| 2026-05-07 17:40 | 31.89344 | 131.67019 | 3420 ft | 159 kts | 256° |
| 2026-05-07 17:40 | 31.89190 | 131.65741 | 3259 ft | 158 kts | 265° |
| 2026-05-07 17:40 | 31.89100 | 131.64459 | 3040 ft | 156 kts | 265° |
| 2026-05-07 17:41 | 31.89011 | 131.63187 | 2829 ft | 156 kts | 266° |
| 2026-05-07 17:41 | 31.88922 | 131.61917 | 2625 ft | 155 kts | 265° |
| 2026-05-07 17:41 | 31.88834 | 131.60659 | 2425 ft | 154 kts | 266° |
| 2026-05-07 17:41 | 31.88745 | 131.59400 | 2219 ft | 154 kts | 265° |
| 2026-05-07 17:42 | 31.88661 | 131.58200 | 2028 ft | 143 kts | 266° |
| 2026-05-07 17:42 | 31.88581 | 131.57056 | 1842 ft | 138 kts | 266° |
| 2026-05-07 17:42 | 31.88503 | 131.55935 | 1652 ft | 136 kts | 265° |
| 2026-05-07 17:42 | 31.88430 | 131.54836 | 1456 ft | 135 kts | 266° |
| 2026-05-07 17:43 | 31.88356 | 131.53726 | 1287 ft | 137 kts | 265° |
| 2026-05-07 17:43 | 31.88262 | 131.52598 | 1070 ft | 137 kts | 263° |
| 2026-05-07 17:43 | 31.88184 | 131.51487 | 898 ft | 137 kts | 265° |
| 2026-05-07 17:43 | 31.88109 | 131.50404 | 764 ft | 136 kts | 266° |
| 2026-05-07 17:44 | 31.88033 | 131.49298 | 595 ft | 134 kts | 264° |
| 2026-05-07 17:44 | 31.87955 | 131.48214 | 374 ft | 133 kts | 264° |
| 2026-05-07 17:44 | 31.87869 | 131.47220 | 219 ft | 132 kts | 264° |
| 2026-05-07 17:44 | 31.87802 | 131.46160 | 69 ft | 131 kts | 267° |
| 2026-05-07 17:45 | 31.87733 | 131.45256 | 35 ft | 104 kts | 266° |
| 2026-05-07 17:45 | 31.87695 | 131.44677 | 32 ft | 43 kts | 265° |
| 2026-05-07 17:45 | 31.87615 | 131.44594 | 31 ft | 15 kts | 173° |
| 2026-05-07 17:45 | 31.87524 | 131.44547 | 33 ft | 15 kts | 237° |
| 2026-05-07 17:46 | 31.87512 | 131.44426 | 33 ft | 16 kts | 266° |
| 2026-05-07 17:46 | 31.87471 | 131.44354 | 33 ft | 9 kts | 169° |
| 2026-05-07 17:46 | 31.87406 | 131.44359 | 33 ft | 10 kts | 176° |
| 2026-05-07 17:46 | 31.87366 | 131.44363 | 32 ft | 0 kts | 175° |
| 2026-05-07 17:52 | 31.87387 | 131.44361 | 33 ft | 4 kts | 175° |
| 2026-05-07 17:52 | 31.87414 | 131.44359 | 33 ft | 4 kts | 175° |